Flight Track Log - Related Links

Times and Time Zones

All times are in EDT time to prevent confusion due to time zone crossing. See the N536EM flight status page for this flight to view local times or setup timezone preferences in your user account.

Time Position Orientation Groundspeed Altitude Reporting Facility
EDT Latitude Longitude Course Direction KTS MPH feet Rate Location/Type
Fri 12:05:43 PM 40.7667 -74.4333 237° Southwest 162 186 1,200  Level New York TRACON
Fri 12:07:19 PM 40.7064 -74.4475 190° South 149 171 3,900 1,831 Climbing New York Center
Fri 12:08:17 PM 40.6808 -74.4022 127° Southeast 129 148 5,900 1,780 Climbing New York Center
Fri 12:09:17 PM 40.6567 -74.4394 229° Southwest 98 113 7,400 1,850 Climbing New York Center
Fri 12:10:17 PM 40.6467 -74.4908 256° West 122 140 9,600 1,884 Climbing New York Center
Fri 12:11:00 PM 40.6445 -74.7943 237° Southwest  Level FlightAware Approximate
Fri 12:11:18 PM 40.6389 -74.5422 259° West 149 171 11,200  Level New York Center
Fri 12:12:19 PM 40.6292 -74.5883 254° West 142 163 13,300 1,916 Climbing New York Center
Fri 12:13:17 PM 40.6211 -74.6397 258° West 142 163 15,000 1,831 Climbing New York Center
Fri 12:14:17 PM 40.6131 -74.6939 259° West 147 169 16,900 1,750 Climbing New York Center
Fri 12:15:17 PM 40.6050 -74.7456 258° West 147 169 18,500 1,450 Climbing New York Center
Fri 12:16:17 PM 40.5947 -74.8050 257° West 157 181 19,800 1,587 Climbing New York Center
Fri 12:17:18 PM 40.5886 -74.8619 262° West 162 186 21,700 1,574 Climbing New York Center
Fri 12:18:19 PM 40.5761 -74.9186 254° West 162 186 23,000 1,513 Climbing New York Center
Fri 12:19:17 PM 40.5697 -74.9839 263° West 167 192 24,700 1,462 Climbing New York Center
Fri 12:20:18 PM 40.5553 -75.0403 251° West 167 192 25,900 1,180 Climbing New York Center
Fri 12:21:19 PM 40.5244 -75.0875 229° Southwest 167 192 27,100 1,041 Climbing New York Center
Fri 12:22:19 PM 40.4911 -75.1372 229° Southwest 172 198 28,000 1,100 Climbing New York Center
Fri 12:23:19 PM 40.4600 -75.1900 232° Southwest 182 209 29,300 1,017 Climbing New York Center
Fri 12:24:17 PM 40.4289 -75.2425 232° Southwest 182 209 30,000 350 Climbing New York Center
Fri 12:25:19 PM 40.3869 -75.3050 229° Southwest 203 234 30,000  Level New York Center
Fri 12:26:19 PM 40.3447 -75.3706 230° Southwest 231 266 30,000  Level New York Center
Fri 12:27:16 PM 40.2981 -75.4436 230° Southwest 253 291 30,000  Level New York Center
Fri 12:28:17 PM 40.2658 -75.5258 243° Southwest 258 297 30,000  Level New York Center
Fri 12:29:17 PM 40.2372 -75.6136 247° West 263 303 30,000  Level New York Center
Fri 12:30:18 PM 40.2064 -75.7036 246° West 268 308 30,000  Level New York Center
Fri 12:31:18 PM 40.1636 -75.7794 234° Southwest 268 308 30,000  Level New York Center
Fri 12:32:19 PM 40.1206 -75.8606 235° Southwest 273 314 30,000  Level New York Center
Fri 12:33:17 PM 40.0753 -75.9414 234° Southwest 278 320 30,000  Level New York Center
Fri 12:34:18 PM 40.0319 -76.0222 235° Southwest 278 320 30,000  Level New York Center
Fri 12:35:18 PM 39.9847 -76.1025 233° Southwest 278 320 30,000  Level New York Center
Fri 12:36:16 PM 39.9392 -76.1858 235° Southwest 278 320 30,000  Level New York Center
Fri 12:37:17 PM 39.8961 -76.2611 233° Southwest 286 329 30,000  Level New York Center
Fri 12:38:18 PM 39.8508 -76.3386 233° Southwest 286 329 30,000  Level New York Center
Fri 12:39:18 PM 39.8050 -76.4214 234° Southwest 286 329 30,000  Level New York Center
Fri 12:40:19 PM 39.7614 -76.5044 236° Southwest 286 329 30,000  Level New York Center
Fri 12:41:17 PM 39.7158 -76.5844 234° Southwest 281 323 30,000  Level New York Center
Fri 12:42:17 PM 39.6700 -76.6669 234° Southwest 281 323 30,000  Level New York Center
Fri 12:42:59 PM 39.6333 -76.7258 231° Southwest 282 325 30,000  Level Washington Center
Fri 12:43:59 PM 39.5889 -76.8058 234° Southwest 276 318 30,000  Level Washington Center
Fri 12:44:57 PM 39.5442 -76.8858 234° Southwest 276 318 30,000  Level Washington Center
Fri 12:45:57 PM 39.5017 -76.9631 235° Southwest 276 318 30,000  Level Washington Center
Fri 12:46:58 PM 39.4425 -77.0319 222° Southwest 276 318 30,000  Level Washington Center
Fri 12:47:58 PM 39.3833 -77.0953 220° Southwest 276 318 30,000  Level Washington Center
Fri 12:48:59 PM 39.3222 -77.1583 219° Southwest 281 323 30,000  Level Washington Center
Fri 12:49:57 PM 39.2608 -77.2242 220° Southwest 281 323 30,000  Level Washington Center
Fri 12:50:57 PM 39.2036 -77.2844 219° Southwest 281 323 30,000  Level Washington Center
Fri 12:51:58 PM 39.1444 -77.3444 218° Southwest 281 323 30,000  Level Washington Center
Fri 12:52:59 PM 39.0853 -77.4072 219° Southwest 281 323 30,000  Level Washington Center
Fri 12:53:59 PM 39.0258 -77.4700 219° Southwest 281 323 30,000  Level Washington Center
Fri 12:54:57 PM 38.9644 -77.5325 218° Southwest 281 323 30,000  Level Washington Center
Fri 12:55:57 PM 38.9050 -77.5975 220° Southwest 281 323 30,000  Level Washington Center
Fri 12:56:58 PM 38.8478 -77.6519 217° Southwest 281 323 30,000  Level Washington Center
Fri 12:57:59 PM 38.7903 -77.7169 221° Southwest 281 323 30,000  Level Washington Center
Fri 12:58:57 PM 38.7247 -77.7817 218° Southwest 289 333 30,000  Level Washington Center
Fri 12:59:58 PM 38.6631 -77.8436 218° Southwest 289 333 30,000  Level Washington Center
Fri 01:00:59 PM 38.6136 -77.9139 228° Southwest 278 320 30,000  Level Washington Center
Fri 01:01:59 PM 38.5683 -77.9894 233° Southwest 272 313 30,000  Level Washington Center
Fri 01:02:58 PM 38.5231 -78.0678 234° Southwest 277 319 30,000  Level Washington Center
Fri 01:03:58 PM 38.4778 -78.1456 233° Southwest 277 319 30,000  Level Washington Center
Fri 01:04:59 PM 38.4300 -78.2236 232° Southwest 277 319 30,000  Level Washington Center
Fri 01:05:57 PM 38.3844 -78.3042 234° Southwest 283 326 30,000  Level Washington Center
Fri 01:06:58 PM 38.3389 -78.3819 233° Southwest 283 326 30,000  Level Washington Center
Fri 01:07:59 PM 38.2911 -78.4619 233° Southwest 283 326 30,000  Level Washington Center
Fri 01:08:59 PM 38.2475 -78.5397 234° Southwest 283 326 30,000  Level Washington Center
Fri 01:09:57 PM 38.1997 -78.6225 234° Southwest 283 326 30,000  Level Washington Center
Fri 01:10:57 PM 38.1475 -78.7075 232° Southwest 283 326 30,000  Level Washington Center
Fri 01:11:57 PM 38.0994 -78.7844 232° Southwest 283 326 30,000  Level Washington Center
Fri 01:12:58 PM 38.0536 -78.8644 234° Southwest 283 326 30,000  Level Washington Center
Fri 01:13:58 PM 38.0056 -78.9414 232° Southwest 283 326 30,000  Level Washington Center
Fri 01:14:59 PM 37.9661 -79.0081 233° Southwest 283 326 30,000  Level Washington Center
Fri 01:15:59 PM 37.9181 -79.0875 233° Southwest 283 326 30,000  Level Washington Center
Fri 01:16:57 PM 37.8700 -79.1589 230° Southwest 283 326 30,000  Level Washington Center
Fri 01:17:58 PM 37.8200 -79.2275 227° Southwest 277 319 30,000  Level Washington Center
Fri 01:18:59 PM 37.7633 -79.3064 228° Southwest 277 319 30,000  Level Washington Center
Fri 01:19:57 PM 37.7089 -79.3744 225° Southwest 282 325 30,000  Level Washington Center
Fri 01:20:57 PM 37.6567 -79.4453 227° Southwest 282 325 30,000  Level Washington Center
Fri 01:21:59 PM 37.6064 -79.5189 229° Southwest 282 325 30,000  Level Washington Center
Fri 01:22:59 PM 37.5539 -79.5894 227° Southwest 282 325 30,000  Level Washington Center
Fri 01:23:57 PM 37.5014 -79.6600 227° Southwest 282 325 30,000  Level Washington Center
Fri 01:24:57 PM 37.4556 -79.7256 229° Southwest 282 325 30,000  Level Washington Center
Fri 01:25:58 PM 37.4006 -79.8011 228° Southwest 282 325 30,000  Level Washington Center
Fri 01:26:58 PM 37.3525 -79.8661 227° Southwest 276 318 30,000  Level Washington Center
Fri 01:27:59 PM 37.2997 -79.9364 227° Southwest 276 318 30,000  Level Washington Center
Fri 01:28:57 PM 37.2517 -80.0014 227° Southwest 276 318 30,000  Level Washington Center
Fri 01:29:58 PM 37.1967 -80.0767 227° Southwest 276 318 30,000  Level Washington Center
Fri 01:32:34 PM 37.0653 -80.2489 226° Southwest 268 308 30,000  Level Atlanta Center
Fri 01:33:34 PM 37.0153 -80.3164 227° Southwest 274 315 30,000  Level Atlanta Center
Fri 01:34:34 PM 36.9653 -80.3864 228° Southwest 274 315 30,000  Level Atlanta Center
Fri 01:35:34 PM 36.9150 -80.4508 226° Southwest 274 315 30,000  Level Atlanta Center
Fri 01:36:34 PM 36.8567 -80.5261 226° Southwest 274 315 30,000  Level Atlanta Center
Fri 01:37:34 PM 36.8086 -80.5958 229° Southwest 274 315 30,000  Level Atlanta Center
Fri 01:38:34 PM 36.7542 -80.6628 225° Southwest 274 315 30,000  Level Atlanta Center
Fri 01:39:34 PM 36.7061 -80.7322 229° Southwest 274 315 30,000  Level Atlanta Center
Fri 01:40:34 PM 36.6536 -80.8017 227° Southwest 274 315 30,000  Level Atlanta Center
Fri 01:41:34 PM 36.6014 -80.8711 227° Southwest 274 315 30,000  Level Atlanta Center
Fri 01:42:34 PM 36.5489 -80.9378 226° Southwest 274 315 30,000  Level Atlanta Center
Fri 01:43:34 PM 36.4944 -81.0122 228° Southwest 280 322 30,000  Level Atlanta Center
Fri 01:44:34 PM 36.4419 -81.0811 227° Southwest 280 322 30,000  Level Atlanta Center
Fri 01:45:34 PM 36.3975 -81.1422 228° Southwest 275 316 30,000  Level Atlanta Center
Fri 01:46:34 PM 36.3450 -81.2136 228° Southwest 275 316 30,000  Level Atlanta Center
Fri 01:47:34 PM 36.2922 -81.2800 225° Southwest 275 316 30,000  Level Atlanta Center
Fri 01:48:34 PM 36.2394 -81.3486 226° Southwest 275 316 30,000  Level Atlanta Center
Fri 01:49:34 PM 36.1867 -81.4172 226° Southwest 275 316 30,000  Level Atlanta Center
Fri 01:50:34 PM 36.1339 -81.4858 226° Southwest 275 316 30,000  Level Atlanta Center
Fri 01:51:34 PM 36.0811 -81.5544 226° Southwest 275 316 30,000  Level Atlanta Center
Fri 01:52:34 PM 36.0283 -81.6228 226° Southwest 275 316 30,000  Level Atlanta Center
Fri 01:53:34 PM 35.9733 -81.6936 226° Southwest 276 318 30,000  Level Atlanta Center
Fri 01:54:34 PM 35.9203 -81.7644 227° Southwest 271 312 30,000  Level Atlanta Center
Fri 01:55:34 PM 35.8675 -81.8325 226° Southwest 276 318 30,000  Level Atlanta Center
Fri 01:56:34 PM 35.8144 -81.8978 225° Southwest 276 318 30,000  Level Atlanta Center
Fri 01:57:34 PM 35.7675 -81.9708 232° Southwest 276 318 30,000  Level Atlanta Center
Fri 01:58:34 PM 35.7208 -82.0436 232° Southwest 271 312 30,000  Level Atlanta Center
Fri 01:59:34 PM 35.6761 -82.1164 233° Southwest 276 318 30,000  Level Atlanta Center
Fri 02:00:34 PM 35.6292 -82.1914 232° Southwest 282 325 30,000  Level Atlanta Center
Fri 02:01:34 PM 35.5844 -82.2639 233° Southwest 277 319 30,000  Level Atlanta Center
Fri 02:02:34 PM 35.5417 -82.3364 234° Southwest 277 319 30,000 -700 Level Atlanta Center
Fri 02:03:34 PM 35.4925 -82.4114 231° Southwest 282 325 28,600 -1,450 Descending Atlanta Center
Fri 02:04:34 PM 35.4394 -82.4914 231° Southwest 295 339 27,100 -1,400 Descending Atlanta Center
Fri 02:05:34 PM 35.3944 -82.5636 233° Southwest 302 348 25,800 -1,500 Descending Atlanta Center
Fri 02:06:34 PM 35.3369 -82.6511 231° Southwest 302 348 24,100 -900 Descending Atlanta Center
Fri 02:07:34 PM 35.2878 -82.7258 231° Southwest 307 353 24,000 -200 Descending Atlanta Center
Fri 02:08:34 PM 35.2406 -82.8056 234° Southwest 302 348 23,700 -900 Descending Atlanta Center
Fri 02:09:34 PM 35.1933 -82.8825 233° Southwest 297 342 22,200 -1,500 Descending Atlanta Center
Fri 02:10:34 PM 35.1458 -82.9542 231° Southwest 292 336 20,700 -1,500 Descending Atlanta Center
Fri 02:11:34 PM 35.0967 -83.0336 233° Southwest 292 336 19,200 -1,450 Descending Atlanta Center
Fri 02:12:34 PM 35.0472 -83.1103 232° Southwest 297 342 17,800 -1,400 Descending Atlanta Center
Fri 02:13:34 PM 35.0039 -83.1792 232° Southwest 279 321 16,400 -1,500 Descending Atlanta Center
Fri 02:14:34 PM 34.9625 -83.2403 230° Southwest 263 303 14,800 -1,500 Descending Atlanta Center
Fri 02:15:34 PM 34.9211 -83.3067 233° Southwest 252 290 13,400 -1,450 Descending Atlanta Center
Fri 02:16:34 PM 34.8778 -83.3703 230° Southwest 247 284 11,900 -1,300 Descending Atlanta Center
Fri 02:17:34 PM 34.8406 -83.4314 233° Southwest 247 284 10,800 -1,050 Descending Atlanta Center
Fri 02:18:34 PM 34.8031 -83.4872 231° Southwest 241 277 9,800 -1,000 Descending Atlanta Center
Fri 02:19:34 PM 34.7658 -83.5458 232° Southwest 228 262 8,800 -950 Descending Atlanta Center
Fri 02:20:34 PM 34.7264 -83.6067 232° Southwest 228 262 7,900 -400 Descending Atlanta Center
Fri 02:21:34 PM 34.6892 -83.6625 231° Southwest 219 252 8,000 50 Climbing Atlanta Center
Fri 02:22:34 PM 34.6536 -83.7156 231° Southwest 214 246 8,000  Level Atlanta Center
Fri 02:23:34 PM 34.6164 -83.7764 233° Southwest 214 246 8,000 -50 Level Atlanta Center
Fri 02:24:34 PM 34.5789 -83.8369 233° Southwest 225 259 7,900  Descending Atlanta Center
Fri 02:25:34 PM 34.5372 -83.8975 230° Southwest 230 265 8,000 50 Climbing Atlanta Center
Fri 02:26:34 PM 34.4975 -83.9581 231° Southwest 230 265 8,000  Level Atlanta Center
Fri 02:27:34 PM 34.4517 -84.0011 218° Southwest 230 265 8,000  Level Atlanta Center
Fri 02:28:34 PM 34.3933 -84.0311 203° Southwest 230 265 8,000  Level Atlanta Center
Fri 02:29:34 PM 34.3389 -84.0614 205° Southwest 224 258 8,000  Level Atlanta Center
Fri 02:30:34 PM 34.2806 -84.0917 203° Southwest 234 269 8,000 -50 Level Atlanta Center
Fri 02:31:34 PM 34.2222 -84.1217 203° Southwest 234 269 7,900 -800 Descending Atlanta Center
Fri 02:32:34 PM 34.1636 -84.1542 205° Southwest 234 269 6,400 -1,500 Descending Atlanta Center
Fri 02:33:34 PM 34.0989 -84.1892 204° Southwest 234 269 4,900 -1,518 Descending Atlanta Center
Fri 02:33:57 PM 34.0833 -84.2000 210° Southwest 234 269 4,300 -779 Descending Atlanta TRACON
Fri 02:34:51 PM 34.0167 -84.2333 203° Southwest 220 253 3,900 -895 Descending Atlanta TRACON
Fri 02:35:51 PM 33.9667 -84.2500 195° South 218 251 2,600 -950 Descending Atlanta TRACON
Fri 02:36:51 PM 33.9333 -84.2833 220° Southwest 152 175 2,000 -600 Descending Atlanta TRACON
Fri 02:39:00 PM 33.8756 -84.3020 209° Southwest  Level Estimated
Fri 02:46:00 PM 33.8756 -84.3020 209° Southwest  Level Estimated

Login

Don't have an account? Register now (free) for customized features, flight alerts, and more!